Estación Meteorológica Peña el Pijo (Robertgarden) [ 11/24/17 15:36:05 CET ]

Fecha Hora Presion(HPa) Temp (°C) Humedad % Rocio (°C) Viento ( m/s) Direccion Lluvia 1Hora(mm) Lluvia 24H(mm) LLuvia Total(mm)
2017-May-29 01:01:49 1011.300 11.8 55 3.0         1390.83
2017-May-29 02:02:04 1011.100 10.9 57 2.7         1390.83
2017-May-29 03:01:39 1010.500 10.4 58 2.5         1390.83
2017-May-29 04:01:36 1009.800 9.9 62 2.9         1390.83
2017-May-29 05:01:36 1009.400 10.1 65 3.8         1390.83
2017-May-29 06:01:38 1009.200 10.1 65 3.8         1390.83
2017-May-29 07:01:58 1009.400 9.4 66 3.3         1390.83
2017-May-29 08:01:32 1009.200 11.2 68 5.5         1390.83
2017-May-29 09:08:43 1008.800 - - - - NNW     1390.83
2017-May-29 10:01:38 1008.600 21.3 37 5.9         1390.83
2017-May-29 11:01:50 1008.700 25.6 31 7.2         1390.83
2017-May-29 12:01:53 1008.800 26.8 29 7.2         1390.83
2017-May-29 13:01:44 1008.300 27.6 28 7.3         1390.83
2017-May-29 14:01:43 1007.900 28.3 27 7.9         1390.83
2017-May-29 15:01:32 1007.300 29.6 25 7.3         1390.83
2017-May-29 16:01:51 1006.800 29.9 28 9.3         1390.83
2017-May-29 17:01:35 1006.800 25.5 32 7.5         1390.83
2017-May-29 18:01:38 1006.800 24.1 38 8.8         1390.83
2017-May-29 19:01:38 1007.900 15.2 65 8.6     15.02 15.02 1405.85
2017-May-29 20:01:30 1008.300 14.8 77 10.8     2.59 17.61 1408.44
2017-May-29 21:01:39 1008.200 14.6 81 11.4     0.51 18.13 1408.96
2017-May-29 22:01:49 1008.200 14.7 82 11.7       18.13 1408.96
2017-May-29 23:01:40 1008.900 14.6 84 11.9       18.13 1408.96

Temperatura Máxima:29°    Temperatura Mínima:
Presión Máxima:1011.300 Hpa    Presión Mínima:1006.800 Hpa


Volver